Time,TemperatureF,DewpointF,PressureIn,WindDirection,WindDirectionDegrees,WindSpeedMPH,WindSpeedGustMPH,Humidity,HourlyPrecipIn,Conditions,Clouds,dailyrainin,SolarRadiationWatts/m^2,SoftwareType,DateUTC
2013-08-06 00:02:00,82.0,54.0,30.04,West,267,18.0,30.0,37,-99.99,,,-99.99,0.000000,,2013-08-06 06:02:00,
2013-08-06 00:22:00,82.0,54.0,30.04,West,266,17.0,33.0,38,-99.99,,,-99.99,0.000000,,2013-08-06 06:22:00,
2013-08-06 00:32:00,82.0,54.0,30.04,West,266,17.0,33.0,38,-99.99,,,-99.99,0.000000,,2013-08-06 06:32:00,
2013-08-06 00:43:00,82.0,54.0,30.04,WNW,282,16.0,27.0,38,-99.99,,,-99.99,0.000000,,2013-08-06 06:43:00,
2013-08-06 00:52:00,82.0,54.0,30.04,WNW,282,16.0,27.0,38,-99.99,,,-99.99,0.000000,,2013-08-06 06:52:00,
2013-08-06 01:01:00,82.0,54.0,30.04,WNW,282,16.0,27.0,38,-99.99,,,-99.99,0.000000,,2013-08-06 07:01:00,
2013-08-06 01:12:00,81.0,55.0,30.04,West,279,14.0,29.0,41,-99.99,,,-99.99,0.000000,,2013-08-06 07:12:00,
2013-08-06 01:22:00,81.0,55.0,30.04,West,275,14.0,25.0,41,-99.99,,,-99.99,0.000000,,2013-08-06 07:22:00,
2013-08-06 01:32:00,81.0,55.0,30.04,West,275,14.0,25.0,41,-99.99,,,-99.99,0.000000,,2013-08-06 07:32:00,
2013-08-06 01:43:00,81.0,55.0,30.04,West,271,14.0,25.0,41,-99.99,,,-99.99,0.000000,,2013-08-06 07:43:00,
2013-08-06 02:01:00,80.0,55.0,30.03,WNW,289,11.0,21.0,42,-99.99,,,-99.99,0.000000,,2013-08-06 08:01:00,
2013-08-06 02:11:00,80.0,56.0,30.04,NW,319,11.0,18.0,43,-99.99,,,-99.99,0.000000,,2013-08-06 08:11:00,
2013-08-06 02:22:00,79.0,57.0,30.04,NNW,338,12.0,17.0,46,-99.99,,,-99.99,0.000000,,2013-08-06 08:22:00,
2013-08-06 02:33:00,79.0,57.0,30.04,NNW,338,12.0,17.0,46,-99.99,,,-99.99,0.000000,,2013-08-06 08:33:00,
2013-08-06 02:43:00,79.0,57.0,30.04,NNW,338,12.0,17.0,46,-99.99,,,-99.99,0.000000,,2013-08-06 08:43:00,
2013-08-06 02:52:00,79.0,56.0,30.03,NW,311,11.0,17.0,44,-99.99,,,-99.99,0.000000,,2013-08-06 08:52:00,
2013-08-06 03:01:00,79.0,56.0,30.03,NW,311,11.0,17.0,44,-99.99,,,-99.99,0.000000,,2013-08-06 09:01:00,
2013-08-06 03:11:00,79.0,56.0,30.03,NW,311,11.0,17.0,44,-99.99,,,-99.99,0.000000,,2013-08-06 09:11:00,
2013-08-06 03:22:00,77.0,56.0,30.03,WNW,295,7.0,11.0,48,-99.99,,,-99.99,0.000000,,2013-08-06 09:22:00,
2013-08-06 03:32:00,77.0,56.0,30.03,WNW,295,7.0,11.0,48,-99.99,,,-99.99,0.000000,,2013-08-06 09:32:00,
2013-08-06 03:43:00,77.0,56.0,30.03,WNW,295,7.0,11.0,48,-99.99,,,-99.99,0.000000,,2013-08-06 09:43:00,
2013-08-06 04:01:00,76.0,56.0,30.03,NW,308,7.0,10.0,50,-99.99,,,-99.99,0.000000,,2013-08-06 10:01:00,
2013-08-06 04:11:00,77.0,56.0,30.03,SE,140,5.0,9.0,48,-99.99,,,-99.99,0.000000,,2013-08-06 10:11:00,
2013-08-06 04:22:00,75.0,56.0,30.03,SSE,150,4.0,6.0,52,-99.99,,,-99.99,0.000000,,2013-08-06 10:22:00,
2013-08-06 04:32:00,75.0,56.0,30.03,SSE,150,4.0,6.0,52,-99.99,,,-99.99,0.000000,,2013-08-06 10:32:00,
2013-08-06 04:43:00,75.0,56.0,30.03,SSE,150,4.0,6.0,52,-99.99,,,-99.99,0.000000,,2013-08-06 10:43:00,
2013-08-06 05:01:00,72.0,57.0,30.03,WNW,283,4.0,8.0,59,-99.99,,,-99.99,0.000000,,2013-08-06 11:01:00,
2013-08-06 05:11:00,72.0,57.0,30.03,WNW,283,4.0,8.0,59,-99.99,,,-99.99,0.000000,,2013-08-06 11:11:00,
2013-08-06 05:22:00,75.0,57.0,30.04,SE,135,2.0,5.0,52,-99.99,,,-99.99,0.000000,,2013-08-06 11:22:00,
2013-08-06 05:32:00,75.0,57.0,30.04,SE,135,2.0,5.0,52,-99.99,,,-99.99,0.000000,,2013-08-06 11:32:00,
2013-08-06 05:43:00,70.0,58.0,30.04,SW,236,3.0,6.0,66,-99.99,,,-99.99,0.000000,,2013-08-06 11:43:00,
2013-08-06 05:53:00,70.0,58.0,30.04,SSW,199,2.0,5.0,64,-99.99,,,-99.99,0.000000,,2013-08-06 11:53:00,
2013-08-06 06:01:00,70.0,58.0,30.04,SSW,199,2.0,5.0,64,-99.99,,,-99.99,0.000000,,2013-08-06 12:01:00,
2013-08-06 06:11:00,70.0,58.0,30.04,SSW,199,2.0,5.0,64,-99.99,,,-99.99,0.000000,,2013-08-06 12:11:00,
2013-08-06 06:22:00,69.0,58.0,30.05,WNW,301,4.0,6.0,67,-99.99,,,-99.99,0.000000,,2013-08-06 12:22:00,
2013-08-06 06:32:00,69.0,58.0,30.05,WNW,301,4.0,6.0,67,-99.99,,,-99.99,0.000000,,2013-08-06 12:32:00,
2013-08-06 06:43:00,68.0,58.0,30.05,WNW,286,5.0,7.0,68,-99.99,,,-99.99,0.700000,,2013-08-06 12:43:00,
2013-08-06 07:01:00,67.0,57.0,30.05,WNW,285,4.0,6.0,70,-99.99,,,-99.99,4.180000,,2013-08-06 13:01:00,
2013-08-06 07:11:00,67.0,57.0,30.05,WNW,285,4.0,6.0,70,-99.99,,,-99.99,4.180000,,2013-08-06 13:11:00,
2013-08-06 07:22:00,71.0,58.0,30.06,WNW,284,4.0,7.0,63,-99.99,,,-99.99,71.830002,,2013-08-06 13:22:00,
2013-08-06 07:32:00,71.0,58.0,30.06,WNW,284,4.0,7.0,63,-99.99,,,-99.99,71.830002,,2013-08-06 13:32:00,
2013-08-06 07:42:00,73.0,58.0,30.06,WNW,294,6.0,8.0,60,-99.99,,,-99.99,117.150002,,2013-08-06 13:42:00,
2013-08-06 08:01:00,75.0,59.0,30.06,WNW,290,5.0,8.0,56,-99.99,,,-99.99,163.869995,,2013-08-06 14:01:00,
2013-08-06 08:11:00,78.0,58.0,30.06,WNW,287,2.0,5.0,49,-99.99,,,-99.99,237.089996,,2013-08-06 14:11:00,
2013-08-06 08:22:00,80.0,57.0,30.07,West,277,2.0,6.0,44,-99.99,,,-99.99,239.880005,,2013-08-06 14:22:00,
2013-08-06 08:32:00,80.0,57.0,30.07,West,277,2.0,6.0,44,-99.99,,,-99.99,239.880005,,2013-08-06 14:32:00,
2013-08-06 08:42:00,82.0,56.0,30.07,ESE,107,0.0,2.0,40,-99.99,,,-99.99,306.130005,,2013-08-06 14:42:00,
2013-08-06 08:53:00,82.0,56.0,30.07,ESE,107,0.0,2.0,40,-99.99,,,-99.99,306.130005,,2013-08-06 14:53:00,
2013-08-06 09:02:00,82.0,56.0,30.07,ESE,107,0.0,2.0,40,-99.99,,,-99.99,306.130005,,2013-08-06 15:02:00,
2013-08-06 09:11:00,83.0,58.0,30.08,East,100,6.0,11.0,42,-99.99,,,-99.99,479.769989,,2013-08-06 15:11:00,
2013-08-06 09:33:00,82.0,58.0,30.08,East,89,5.0,9.0,43,-99.99,,,-99.99,547.409973,,2013-08-06 15:33:00,
2013-08-06 09:44:00,82.0,58.0,30.08,East,90,7.0,10.0,44,-99.99,,,-99.99,391.899994,,2013-08-06 15:44:00,
2013-08-06 09:52:00,81.0,58.0,30.08,East,85,4.0,7.0,44,-99.99,,,-99.99,253.830002,,2013-08-06 15:52:00,
2013-08-06 10:02:00,81.0,58.0,30.08,East,85,4.0,7.0,44,-99.99,,,-99.99,253.830002,,2013-08-06 16:02:00,
2013-08-06 10:11:00,82.0,58.0,30.08,SSE,148,3.0,6.0,43,-99.99,,,-99.99,342.390015,,2013-08-06 16:11:00,
2013-08-06 10:22:00,83.0,58.0,30.09,ESE,120,4.0,8.0,42,-99.99,,,-99.99,531.369995,,2013-08-06 16:22:00,
2013-08-06 10:32:00,83.0,58.0,30.09,ESE,120,4.0,8.0,42,-99.99,,,-99.99,531.369995,,2013-08-06 16:32:00,
2013-08-06 10:43:00,83.0,57.0,30.09,ESE,113,4.0,9.0,40,-99.99,,,-99.99,424.679993,,2013-08-06 16:43:00,
2013-08-06 11:02:00,82.0,57.0,30.09,ESE,118,5.0,8.0,41,-99.99,,,-99.99,215.479996,,2013-08-06 17:02:00,
2013-08-06 11:11:00,82.0,57.0,30.09,SE,130,4.0,6.0,41,-99.99,,,-99.99,222.449997,,2013-08-06 17:11:00,
2013-08-06 11:21:00,82.0,57.0,30.09,SE,130,4.0,6.0,41,-99.99,,,-99.99,222.449997,,2013-08-06 17:21:00,
2013-08-06 11:32:00,82.0,57.0,30.09,SE,130,4.0,6.0,41,-99.99,,,-99.99,222.449997,,2013-08-06 17:32:00,
2013-08-06 11:44:00,82.0,57.0,30.09,SE,130,4.0,6.0,41,-99.99,,,-99.99,222.449997,,2013-08-06 17:44:00,
2013-08-06 12:11:00,-999.0,-99.9,30.10,SSW,205,3.0,6.0,-999,-99.99,,,-99.99,,,2013-08-06 18:11:00,
2013-08-06 12:22:00,-999.0,-99.9,30.10,SSW,205,3.0,6.0,-999,-99.99,,,-99.99,,,2013-08-06 18:22:00,
2013-08-06 12:32:00,-999.0,-99.9,30.10,SSW,205,3.0,6.0,-999,-99.99,,,-99.99,,,2013-08-06 18:32:00,
2013-08-06 12:43:00,84.0,54.0,30.10,NE,45,0.0,1.0,35,-99.99,,,-99.99,333.329987,,2013-08-06 18:43:00,
2013-08-06 12:52:00,84.0,54.0,30.10,NE,45,0.0,1.0,35,-99.99,,,-99.99,333.329987,,2013-08-06 18:52:00,
2013-08-06 13:01:00,84.0,54.0,30.10,NE,45,0.0,1.0,35,-99.99,,,-99.99,333.329987,,2013-08-06 19:01:00,
2013-08-06 13:11:00,84.0,54.0,30.09,SE,128,4.0,8.0,36,-99.99,,,-99.99,308.920013,,2013-08-06 19:11:00,
2013-08-06 13:21:00,84.0,54.0,30.09,ESE,123,3.0,6.0,35,-99.99,,,-99.99,335.420013,,2013-08-06 19:21:00,
2013-08-06 13:32:00,84.0,54.0,30.09,ESE,123,3.0,6.0,35,-99.99,,,-99.99,335.420013,,2013-08-06 19:32:00,
2013-08-06 13:42:00,85.0,53.0,30.09,SE,140,3.0,8.0,33,-99.99,,,-99.99,568.330017,,2013-08-06 19:42:00,
2013-08-06 14:01:00,87.0,53.0,30.08,SE,129,4.0,8.0,31,-99.99,,,-99.99,899.559998,,2013-08-06 20:01:00,
2013-08-06 14:11:00,88.0,53.0,30.07,West,274,2.0,8.0,29,-99.99,,,-99.99,889.099976,,2013-08-06 20:11:00,
2013-08-06 14:22:00,89.0,51.0,30.06,West,263,4.0,15.0,27,-99.99,,,-99.99,886.309998,,2013-08-06 20:22:00,
2013-08-06 14:32:00,89.0,51.0,30.06,West,263,4.0,15.0,27,-99.99,,,-99.99,886.309998,,2013-08-06 20:32:00,
2013-08-06 14:44:00,90.0,50.0,30.06,West,262,6.0,16.0,25,-99.99,,,-99.99,911.409973,,2013-08-06 20:44:00,
2013-08-06 14:52:00,90.0,50.0,30.06,West,262,6.0,16.0,25,-99.99,,,-99.99,911.409973,,2013-08-06 20:52:00,
2013-08-06 15:01:00,90.0,50.0,30.06,West,262,6.0,16.0,25,-99.99,,,-99.99,911.409973,,2013-08-06 21:01:00,
2013-08-06 15:11:00,90.0,50.0,30.05,West,277,10.0,18.0,25,-99.99,,,-99.99,829.830017,,2013-08-06 21:11:00,
2013-08-06 15:22:00,90.0,50.0,30.04,West,259,7.0,15.0,25,-99.99,,,-99.99,818.669983,,2013-08-06 21:22:00,
2013-08-06 15:32:00,90.0,50.0,30.04,West,259,7.0,15.0,25,-99.99,,,-99.99,818.669983,,2013-08-06 21:32:00,
2013-08-06 15:43:00,91.0,49.0,30.04,West,269,10.0,21.0,24,-99.99,,,-99.99,793.570007,,2013-08-06 21:43:00,
2013-08-06 15:52:00,91.0,49.0,30.04,West,269,10.0,21.0,24,-99.99,,,-99.99,793.570007,,2013-08-06 21:52:00,
2013-08-06 16:01:00,91.0,49.0,30.04,West,269,10.0,21.0,24,-99.99,,,-99.99,793.570007,,2013-08-06 22:01:00,
2013-08-06 16:11:00,91.0,48.0,30.03,WSW,237,6.0,19.0,22,-99.99,,,-99.99,736.380005,,2013-08-06 22:11:00,
2013-08-06 16:22:00,91.0,47.0,30.03,SSW,201,5.0,13.0,22,-99.99,,,-99.99,607.380005,,2013-08-06 22:22:00,
2013-08-06 16:32:00,91.0,47.0,30.03,SSW,201,5.0,13.0,22,-99.99,,,-99.99,607.380005,,2013-08-06 22:32:00,
2013-08-06 16:43:00,91.0,48.0,30.02,SW,229,8.0,18.0,23,-99.99,,,-99.99,552.989990,,2013-08-06 22:43:00,
2013-08-06 16:53:00,91.0,49.0,30.02,West,263,7.0,21.0,24,-99.99,,,-99.99,487.440002,,2013-08-06 22:53:00,
2013-08-06 17:01:00,91.0,49.0,30.02,West,263,7.0,21.0,24,-99.99,,,-99.99,487.440002,,2013-08-06 23:01:00,
2013-08-06 17:11:00,91.0,49.0,30.02,West,263,7.0,21.0,24,-99.99,,,-99.99,487.440002,,2013-08-06 23:11:00,
2013-08-06 17:22:00,91.0,49.0,30.01,WSW,239,10.0,19.0,23,-99.99,,,-99.99,530.669983,,2013-08-06 23:22:00,
2013-08-06 17:32:00,91.0,49.0,30.01,WSW,239,10.0,19.0,23,-99.99,,,-99.99,530.669983,,2013-08-06 23:32:00,
2013-08-06 17:43:00,91.0,49.0,30.01,WSW,239,10.0,19.0,23,-99.99,,,-99.99,530.669983,,2013-08-06 23:43:00,
2013-08-06 17:52:00,91.0,48.0,30.00,West,259,7.0,19.0,23,-99.99,,,-99.99,425.369995,,2013-08-06 23:52:00,
2013-08-06 18:01:00,91.0,48.0,30.00,West,259,7.0,19.0,23,-99.99,,,-99.99,425.369995,,2013-08-07 00:01:00,
2013-08-06 18:11:00,91.0,48.0,30.00,WNW,291,7.0,19.0,22,-99.99,,,-99.99,359.130005,,2013-08-07 00:11:00,
2013-08-06 18:21:00,91.0,48.0,30.00,WNW,291,7.0,19.0,22,-99.99,,,-99.99,359.130005,,2013-08-07 00:21:00,
2013-08-06 18:32:00,91.0,48.0,30.00,WNW,291,7.0,19.0,22,-99.99,,,-99.99,359.130005,,2013-08-07 00:32:00,
2013-08-06 18:43:00,90.0,47.0,30.00,West,279,5.0,15.0,23,-99.99,,,-99.99,235.699997,,2013-08-07 00:43:00,
2013-08-06 18:52:00,90.0,47.0,29.99,West,270,5.0,11.0,23,-99.99,,,-99.99,205.020004,,2013-08-07 00:52:00,
2013-08-06 19:01:00,90.0,47.0,29.99,West,270,5.0,11.0,23,-99.99,,,-99.99,205.020004,,2013-08-07 01:01:00,
2013-08-06 19:11:00,89.0,47.0,30.00,West,271,5.0,14.0,23,-99.99,,,-99.99,129.699997,,2013-08-07 01:11:00,
2013-08-06 19:22:00,89.0,48.0,30.00,West,264,6.0,14.0,24,-99.99,,,-99.99,115.059998,,2013-08-07 01:22:00,
2013-08-06 19:32:00,89.0,48.0,30.00,West,264,6.0,14.0,24,-99.99,,,-99.99,115.059998,,2013-08-07 01:32:00,
2013-08-06 19:43:00,89.0,48.0,30.00,SW,236,3.0,9.0,24,-99.99,,,-99.99,108.779999,,2013-08-07 01:43:00,
2013-08-06 20:02:00,88.0,48.0,30.00,SW,217,6.0,23.0,25,-99.99,,,-99.99,47.419998,,2013-08-07 02:02:00,
2013-08-06 20:11:00,86.0,49.0,30.01,WSW,249,3.0,11.0,27,-99.99,,,-99.99,13.950000,,2013-08-07 02:11:00,
2013-08-06 20:22:00,85.0,49.0,30.01,WNW,295,3.0,8.0,29,-99.99,,,-99.99,6.970000,,2013-08-07 02:22:00,
2013-08-06 20:33:00,85.0,49.0,30.01,WNW,295,3.0,8.0,29,-99.99,,,-99.99,6.970000,,2013-08-07 02:33:00,
2013-08-06 20:43:00,83.0,50.0,30.01,SW,227,5.0,11.0,31,-99.99,,,-99.99,1.390000,,2013-08-07 02:43:00,
2013-08-06 21:01:00,84.0,49.0,30.01,SSW,201,5.0,10.0,29,-99.99,,,-99.99,0.000000,,2013-08-07 03:01:00,
2013-08-06 21:11:00,82.0,51.0,30.01,WSW,246,5.0,9.0,33,-99.99,,,-99.99,0.000000,,2013-08-07 03:11:00,
2013-08-06 21:22:00,82.0,50.0,30.02,SW,228,4.0,15.0,32,-99.99,,,-99.99,0.000000,,2013-08-07 03:22:00,
2013-08-06 21:32:00,82.0,50.0,30.02,SW,228,4.0,15.0,32,-99.99,,,-99.99,0.000000,,2013-08-07 03:32:00,
2013-08-06 21:43:00,82.0,50.0,30.02,SW,228,4.0,15.0,32,-99.99,,,-99.99,0.000000,,2013-08-07 03:43:00,
2013-08-06 21:52:00,83.0,49.0,30.03,SW,216,6.0,14.0,30,-99.99,,,-99.99,0.000000,,2013-08-07 03:52:00,
2013-08-06 22:01:00,83.0,49.0,30.03,SW,216,6.0,14.0,30,-99.99,,,-99.99,0.000000,,2013-08-07 04:01:00,
2013-08-06 22:11:00,83.0,50.0,30.03,SW,228,10.0,18.0,31,-99.99,,,-99.99,0.000000,,2013-08-07 04:11:00,
2013-08-06 22:21:00,84.0,50.0,30.04,West,260,8.0,16.0,31,-99.99,,,-99.99,0.000000,,2013-08-07 04:21:00,
2013-08-06 22:33:00,84.0,50.0,30.04,West,260,8.0,16.0,31,-99.99,,,-99.99,0.000000,,2013-08-07 04:33:00,
2013-08-06 22:43:00,82.0,52.0,30.04,West,266,14.0,30.0,36,-99.99,,,-99.99,0.000000,,2013-08-07 04:43:00,
2013-08-06 23:02:00,80.0,54.0,30.05,West,264,14.0,27.0,40,-99.99,,,-99.99,0.000000,,2013-08-07 05:02:00,
2013-08-06 23:11:00,80.0,54.0,30.05,West,276,14.0,26.0,41,-99.99,,,-99.99,0.000000,,2013-08-07 05:11:00,
2013-08-06 23:22:00,79.0,54.0,30.05,West,264,15.0,26.0,41,-99.99,,,-99.99,0.000000,,2013-08-07 05:22:00,
2013-08-06 23:32:00,79.0,54.0,30.05,West,264,15.0,26.0,41,-99.99,,,-99.99,0.000000,,2013-08-07 05:32:00,
2013-08-06 23:43:00,80.0,53.0,30.05,WSW,251,16.0,33.0,39,-99.99,,,-99.99,0.000000,,2013-08-07 05:43:00,